sensor_id;sensor_type;location;lat;lon;timestamp;P1;durP1;ratioP1;P2;durP2;ratioP2
2872;SDS011;1444;49.166;7.312;2023-05-07T00:01:59;4.70;;;3.70;;
2872;SDS011;1444;49.166;7.312;2023-05-07T00:04:25;4.70;;;3.20;;
2872;SDS011;1444;49.166;7.312;2023-05-07T00:06:53;3.67;;;3.37;;
2872;SDS011;1444;49.166;7.312;2023-05-07T00:09:20;4.50;;;3.80;;
2872;SDS011;1444;49.166;7.312;2023-05-07T00:11:46;3.60;;;3.30;;
2872;SDS011;1444;49.166;7.312;2023-05-07T00:14:13;4.30;;;3.80;;
2872;SDS011;1444;49.166;7.312;2023-05-07T00:16:40;4.43;;;4.07;;
2872;SDS011;1444;49.166;7.312;2023-05-07T00:19:08;5.40;;;4.60;;
2872;SDS011;1444;49.166;7.312;2023-05-07T00:21:34;6.93;;;4.40;;
2872;SDS011;1444;49.166;7.312;2023-05-07T00:24:02;6.03;;;4.60;;
2872;SDS011;1444;49.166;7.312;2023-05-07T00:26:28;4.10;;;3.70;;
2872;SDS011;1444;49.166;7.312;2023-05-07T00:28:55;4.13;;;3.77;;
2872;SDS011;1444;49.166;7.312;2023-05-07T00:31:22;4.50;;;3.53;;
2872;SDS011;1444;49.166;7.312;2023-05-07T00:33:48;8.80;;;4.23;;
2872;SDS011;1444;49.166;7.312;2023-05-07T00:36:16;6.13;;;3.87;;
2872;SDS011;1444;49.166;7.312;2023-05-07T00:38:43;11.67;;;4.70;;
2872;SDS011;1444;49.166;7.312;2023-05-07T00:41:10;6.50;;;3.80;;
2872;SDS011;1444;49.166;7.312;2023-05-07T00:43:36;5.23;;;4.40;;
2872;SDS011;1444;49.166;7.312;2023-05-07T00:46:03;5.27;;;3.90;;
2872;SDS011;1444;49.166;7.312;2023-05-07T00:48:30;6.33;;;3.97;;
2872;SDS011;1444;49.166;7.312;2023-05-07T00:50:57;3.83;;;3.53;;
2872;SDS011;1444;49.166;7.312;2023-05-07T00:53:25;4.13;;;3.70;;
2872;SDS011;1444;49.166;7.312;2023-05-07T00:55:52;4.97;;;4.00;;
2872;SDS011;1444;49.166;7.312;2023-05-07T00:58:19;5.50;;;4.93;;
2872;SDS011;1444;49.166;7.312;2023-05-07T01:00:47;5.00;;;4.07;;
2872;SDS011;1444;49.166;7.312;2023-05-07T01:03:13;4.00;;;3.70;;
2872;SDS011;1444;49.166;7.312;2023-05-07T01:05:40;5.03;;;4.17;;
2872;SDS011;1444;49.166;7.312;2023-05-07T01:08:09;5.20;;;4.40;;
2872;SDS011;1444;49.166;7.312;2023-05-07T01:10:37;6.07;;;4.40;;
2872;SDS011;1444;49.166;7.312;2023-05-07T01:13:07;3.87;;;3.50;;
2872;SDS011;1444;49.166;7.312;2023-05-07T01:15:35;4.53;;;4.00;;
2872;SDS011;1444;49.166;7.312;2023-05-07T01:18:01;5.87;;;4.43;;
2872;SDS011;1444;49.166;7.312;2023-05-07T01:20:28;3.80;;;3.50;;
2872;SDS011;1444;49.166;7.312;2023-05-07T01:22:57;3.90;;;3.33;;
2872;SDS011;1444;49.166;7.312;2023-05-07T01:25:25;4.80;;;4.37;;
2872;SDS011;1444;49.166;7.312;2023-05-07T01:27:52;4.33;;;4.03;;
2872;SDS011;1444;49.166;7.312;2023-05-07T01:30:18;4.30;;;3.90;;
2872;SDS011;1444;49.166;7.312;2023-05-07T01:32:48;5.50;;;4.00;;
2872;SDS011;1444;49.166;7.312;2023-05-07T01:35:18;7.60;;;4.00;;
2872;SDS011;1444;49.166;7.312;2023-05-07T01:37:47;18.93;;;5.33;;
2872;SDS011;1444;49.166;7.312;2023-05-07T01:40:16;7.23;;;5.10;;
2872;SDS011;1444;49.166;7.312;2023-05-07T01:42:43;5.40;;;4.20;;
2872;SDS011;1444;49.166;7.312;2023-05-07T01:45:11;4.50;;;4.10;;
2872;SDS011;1444;49.166;7.312;2023-05-07T01:47:38;4.87;;;3.37;;
2872;SDS011;1444;49.166;7.312;2023-05-07T01:50:06;4.43;;;3.80;;
2872;SDS011;1444;49.166;7.312;2023-05-07T01:52:35;8.30;;;3.93;;
2872;SDS011;1444;49.166;7.312;2023-05-07T01:55:02;4.10;;;3.70;;
2872;SDS011;1444;49.166;7.312;2023-05-07T01:57:31;5.17;;;4.03;;
2872;SDS011;1444;49.166;7.312;2023-05-07T01:59:57;7.33;;;4.17;;
2872;SDS011;1444;49.166;7.312;2023-05-07T02:02:24;4.70;;;3.80;;
2872;SDS011;1444;49.166;7.312;2023-05-07T02:04:51;7.00;;;4.47;;
2872;SDS011;1444;49.166;7.312;2023-05-07T02:07:17;5.20;;;4.40;;
2872;SDS011;1444;49.166;7.312;2023-05-07T02:09:44;4.73;;;4.07;;
2872;SDS011;1444;49.166;7.312;2023-05-07T02:12:11;18.50;;;4.47;;
2872;SDS011;1444;49.166;7.312;2023-05-07T02:14:39;4.40;;;4.00;;
2872;SDS011;1444;49.166;7.312;2023-05-07T02:17:05;6.90;;;5.20;;
2872;SDS011;1444;49.166;7.312;2023-05-07T02:19:32;5.10;;;4.70;;
2872;SDS011;1444;49.166;7.312;2023-05-07T02:22:00;5.10;;;4.47;;
2872;SDS011;1444;49.166;7.312;2023-05-07T02:24:26;4.37;;;3.97;;
2872;SDS011;1444;49.166;7.312;2023-05-07T02:26:53;5.13;;;4.30;;
2872;SDS011;1444;49.166;7.312;2023-05-07T02:29:20;6.40;;;3.83;;
2872;SDS011;1444;49.166;7.312;2023-05-07T02:31:48;4.57;;;4.10;;
2872;SDS011;1444;49.166;7.312;2023-05-07T02:34:15;5.40;;;4.33;;
2872;SDS011;1444;49.166;7.312;2023-05-07T02:36:42;10.57;;;4.13;;
2872;SDS011;1444;49.166;7.312;2023-05-07T02:39:09;4.27;;;3.73;;
2872;SDS011;1444;49.166;7.312;2023-05-07T02:41:36;4.73;;;4.30;;
2872;SDS011;1444;49.166;7.312;2023-05-07T02:44:02;4.47;;;4.07;;
2872;SDS011;1444;49.166;7.312;2023-05-07T02:46:29;4.63;;;4.10;;
2872;SDS011;1444;49.166;7.312;2023-05-07T02:48:57;3.67;;;3.37;;
2872;SDS011;1444;49.166;7.312;2023-05-07T02:51:25;8.70;;;5.10;;
2872;SDS011;1444;49.166;7.312;2023-05-07T02:53:52;3.30;;;3.00;;
2872;SDS011;1444;49.166;7.312;2023-05-07T02:56:18;3.80;;;3.40;;
2872;SDS011;1444;49.166;7.312;2023-05-07T02:58:46;3.60;;;3.30;;
2872;SDS011;1444;49.166;7.312;2023-05-07T03:01:12;6.63;;;4.83;;
2872;SDS011;1444;49.166;7.312;2023-05-07T03:03:39;7.43;;;5.00;;
2872;SDS011;1444;49.166;7.312;2023-05-07T03:06:07;6.20;;;4.17;;
2872;SDS011;1444;49.166;7.312;2023-05-07T03:08:34;8.00;;;5.27;;
2872;SDS011;1444;49.166;7.312;2023-05-07T03:11:01;5.80;;;4.30;;
2872;SDS011;1444;49.166;7.312;2023-05-07T03:13:28;4.83;;;4.43;;
2872;SDS011;1444;49.166;7.312;2023-05-07T03:15:55;4.87;;;4.47;;
2872;SDS011;1444;49.166;7.312;2023-05-07T03:18:21;4.87;;;4.00;;
2872;SDS011;1444;49.166;7.312;2023-05-07T03:20:48;4.63;;;4.27;;
2872;SDS011;1444;49.166;7.312;2023-05-07T03:23:16;7.57;;;3.67;;
2872;SDS011;1444;49.166;7.312;2023-05-07T03:25:43;10.10;;;4.83;;
2872;SDS011;1444;49.166;7.312;2023-05-07T03:28:10;5.20;;;3.90;;
2872;SDS011;1444;49.166;7.312;2023-05-07T03:30:36;3.90;;;3.60;;
2872;SDS011;1444;49.166;7.312;2023-05-07T03:33:03;6.50;;;4.00;;
2872;SDS011;1444;49.166;7.312;2023-05-07T03:35:30;4.60;;;4.20;;
2872;SDS011;1444;49.166;7.312;2023-05-07T03:37:56;3.83;;;3.53;;
2872;SDS011;1444;49.166;7.312;2023-05-07T03:40:24;4.07;;;3.67;;
2872;SDS011;1444;49.166;7.312;2023-05-07T03:42:51;4.70;;;4.10;;
2872;SDS011;1444;49.166;7.312;2023-05-07T03:45:18;6.00;;;4.10;;
2872;SDS011;1444;49.166;7.312;2023-05-07T03:47:44;4.60;;;4.13;;
2872;SDS011;1444;49.166;7.312;2023-05-07T03:50:11;6.27;;;4.20;;
2872;SDS011;1444;49.166;7.312;2023-05-07T03:52:38;4.63;;;3.80;;
2872;SDS011;1444;49.166;7.312;2023-05-07T03:55:05;4.60;;;4.20;;
2872;SDS011;1444;49.166;7.312;2023-05-07T03:57:34;4.40;;;4.00;;
2872;SDS011;1444;49.166;7.312;2023-05-07T04:00:00;4.50;;;3.73;;
2872;SDS011;1444;49.166;7.312;2023-05-07T04:02:28;5.77;;;4.67;;
2872;SDS011;1444;49.166;7.312;2023-05-07T04:04:55;13.40;;;4.53;;
2872;SDS011;1444;49.166;7.312;2023-05-07T04:07:22;4.40;;;3.70;;
2872;SDS011;1444;49.166;7.312;2023-05-07T04:09:48;4.00;;;3.20;;
2872;SDS011;1444;49.166;7.312;2023-05-07T04:12:15;4.70;;;3.40;;
2872;SDS011;1444;49.166;7.312;2023-05-07T04:14:43;3.80;;;3.50;;
2872;SDS011;1444;49.166;7.312;2023-05-07T04:17:10;4.20;;;3.80;;
2872;SDS011;1444;49.166;7.312;2023-05-07T04:19:37;5.10;;;4.00;;
2872;SDS011;1444;49.166;7.312;2023-05-07T04:22:03;5.00;;;3.90;;
2872;SDS011;1444;49.166;7.312;2023-05-07T04:24:30;4.60;;;4.20;;
2872;SDS011;1444;49.166;7.312;2023-05-07T04:26:58;4.73;;;4.23;;
2872;SDS011;1444;49.166;7.312;2023-05-07T04:29:24;4.60;;;4.20;;
2872;SDS011;1444;49.166;7.312;2023-05-07T04:31:53;5.43;;;3.83;;
2872;SDS011;1444;49.166;7.312;2023-05-07T04:34:21;7.80;;;4.17;;
2872;SDS011;1444;49.166;7.312;2023-05-07T04:36:48;6.47;;;5.00;;
2872;SDS011;1444;49.166;7.312;2023-05-07T04:39:14;4.60;;;4.20;;
2872;SDS011;1444;49.166;7.312;2023-05-07T04:41:41;7.10;;;4.43;;
2872;SDS011;1444;49.166;7.312;2023-05-07T04:44:07;7.00;;;4.20;;
2872;SDS011;1444;49.166;7.312;2023-05-07T04:46:34;7.87;;;4.93;;
2872;SDS011;1444;49.166;7.312;2023-05-07T04:49:02;6.90;;;4.00;;
2872;SDS011;1444;49.166;7.312;2023-05-07T04:51:29;4.43;;;3.87;;
2872;SDS011;1444;49.166;7.312;2023-05-07T04:53:57;6.00;;;4.60;;
2872;SDS011;1444;49.166;7.312;2023-05-07T04:56:24;4.33;;;3.97;;
2872;SDS011;1444;49.166;7.312;2023-05-07T04:58:54;6.43;;;4.03;;
2872;SDS011;1444;49.166;7.312;2023-05-07T05:01:20;5.10;;;4.30;;
2872;SDS011;1444;49.166;7.312;2023-05-07T05:03:47;5.63;;;5.03;;
2872;SDS011;1444;49.166;7.312;2023-05-07T05:06:15;7.80;;;5.50;;
2872;SDS011;1444;49.166;7.312;2023-05-07T05:08:42;6.20;;;4.77;;
2872;SDS011;1444;49.166;7.312;2023-05-07T05:11:08;6.00;;;4.30;;
2872;SDS011;1444;49.166;7.312;2023-05-07T05:13:35;7.40;;;4.20;;
2872;SDS011;1444;49.166;7.312;2023-05-07T05:16:02;5.80;;;5.30;;
2872;SDS011;1444;49.166;7.312;2023-05-07T05:18:29;6.03;;;5.43;;
2872;SDS011;1444;49.166;7.312;2023-05-07T05:20:55;5.93;;;5.20;;
2872;SDS011;1444;49.166;7.312;2023-05-07T05:23:23;5.60;;;5.10;;
2872;SDS011;1444;49.166;7.312;2023-05-07T05:25:50;5.17;;;4.40;;
2872;SDS011;1444;49.166;7.312;2023-05-07T05:28:21;5.90;;;4.70;;
2872;SDS011;1444;49.166;7.312;2023-05-07T05:30:48;4.17;;;3.77;;
2872;SDS011;1444;49.166;7.312;2023-05-07T05:33:15;7.63;;;5.60;;
2872;SDS011;1444;49.166;7.312;2023-05-07T05:35:41;7.70;;;5.47;;
2872;SDS011;1444;49.166;7.312;2023-05-07T05:38:08;9.00;;;5.50;;
2872;SDS011;1444;49.166;7.312;2023-05-07T05:40:36;5.90;;;5.40;;
2872;SDS011;1444;49.166;7.312;2023-05-07T05:43:03;7.67;;;6.23;;
2872;SDS011;1444;49.166;7.312;2023-05-07T05:45:29;9.10;;;6.30;;
2872;SDS011;1444;49.166;7.312;2023-05-07T05:47:56;7.40;;;6.10;;
2872;SDS011;1444;49.166;7.312;2023-05-07T05:50:23;6.57;;;5.87;;
2872;SDS011;1444;49.166;7.312;2023-05-07T05:52:50;7.47;;;6.77;;
2872;SDS011;1444;49.166;7.312;2023-05-07T05:55:16;7.90;;;6.07;;
2872;SDS011;1444;49.166;7.312;2023-05-07T05:57:44;6.83;;;6.23;;
2872;SDS011;1444;49.166;7.312;2023-05-07T06:00:11;7.70;;;6.30;;
2872;SDS011;1444;49.166;7.312;2023-05-07T06:02:38;6.53;;;5.93;;
2872;SDS011;1444;49.166;7.312;2023-05-07T06:05:05;7.50;;;6.80;;
2872;SDS011;1444;49.166;7.312;2023-05-07T06:07:32;8.10;;;7.30;;
2872;SDS011;1444;49.166;7.312;2023-05-07T06:09:59;6.50;;;5.90;;
2872;SDS011;1444;49.166;7.312;2023-05-07T06:12:26;8.27;;;7.40;;
2872;SDS011;1444;49.166;7.312;2023-05-07T06:14:54;9.30;;;7.50;;
2872;SDS011;1444;49.166;7.312;2023-05-07T06:17:21;9.03;;;7.50;;
2872;SDS011;1444;49.166;7.312;2023-05-07T06:19:47;7.23;;;6.60;;
2872;SDS011;1444;49.166;7.312;2023-05-07T06:22:14;11.23;;;10.03;;
2872;SDS011;1444;49.166;7.312;2023-05-07T06:24:41;11.30;;;8.47;;
2872;SDS011;1444;49.166;7.312;2023-05-07T06:27:08;9.23;;;8.03;;
2872;SDS011;1444;49.166;7.312;2023-05-07T06:29:34;9.23;;;8.00;;
2872;SDS011;1444;49.166;7.312;2023-05-07T06:32:08;14.43;;;7.83;;
2872;SDS011;1444;49.166;7.312;2023-05-07T06:34:36;9.90;;;7.93;;
2872;SDS011;1444;49.166;7.312;2023-05-07T06:37:03;8.77;;;7.53;;
2872;SDS011;1444;49.166;7.312;2023-05-07T06:39:30;11.30;;;7.97;;
2872;SDS011;1444;49.166;7.312;2023-05-07T06:41:57;7.97;;;6.70;;
2872;SDS011;1444;49.166;7.312;2023-05-07T06:44:23;12.07;;;7.30;;
2872;SDS011;1444;49.166;7.312;2023-05-07T06:46:50;7.57;;;6.87;;
2872;SDS011;1444;49.166;7.312;2023-05-07T06:49:18;8.00;;;7.03;;
2872;SDS011;1444;49.166;7.312;2023-05-07T06:51:45;8.83;;;7.17;;
2872;SDS011;1444;49.166;7.312;2023-05-07T06:54:11;8.03;;;7.23;;
2872;SDS011;1444;49.166;7.312;2023-05-07T06:56:38;8.47;;;6.40;;
2872;SDS011;1444;49.166;7.312;2023-05-07T06:59:05;7.87;;;6.30;;
2872;SDS011;1444;49.166;7.312;2023-05-07T07:01:32;7.37;;;5.63;;
2872;SDS011;1444;49.166;7.312;2023-05-07T07:03:59;9.87;;;6.67;;
2872;SDS011;1444;49.166;7.312;2023-05-07T07:06:27;8.70;;;6.47;;
2872;SDS011;1444;49.166;7.312;2023-05-07T07:08:54;9.40;;;5.67;;
2872;SDS011;1444;49.166;7.312;2023-05-07T07:11:21;6.80;;;6.20;;
2872;SDS011;1444;49.166;7.312;2023-05-07T07:13:48;7.20;;;6.00;;
2872;SDS011;1444;49.166;7.312;2023-05-07T07:16:15;7.60;;;5.47;;
2872;SDS011;1444;49.166;7.312;2023-05-07T07:18:42;7.30;;;5.60;;
2872;SDS011;1444;49.166;7.312;2023-05-07T07:21:09;9.20;;;6.07;;
2872;SDS011;1444;49.166;7.312;2023-05-07T07:23:37;9.60;;;8.53;;
2872;SDS011;1444;49.166;7.312;2023-05-07T07:26:04;28.60;;;17.60;;
2872;SDS011;1444;49.166;7.312;2023-05-07T07:28:31;6.80;;;4.97;;
2872;SDS011;1444;49.166;7.312;2023-05-07T07:30:58;7.37;;;5.77;;
2872;SDS011;1444;49.166;7.312;2023-05-07T07:33:25;5.20;;;4.80;;
2872;SDS011;1444;49.166;7.312;2023-05-07T07:35:51;6.80;;;4.67;;
2872;SDS011;1444;49.166;7.312;2023-05-07T07:38:18;4.60;;;4.20;;
2872;SDS011;1444;49.166;7.312;2023-05-07T07:40:48;8.03;;;4.50;;
2872;SDS011;1444;49.166;7.312;2023-05-07T07:43:15;5.63;;;4.23;;
2872;SDS011;1444;49.166;7.312;2023-05-07T07:45:41;6.00;;;4.93;;
2872;SDS011;1444;49.166;7.312;2023-05-07T07:48:08;6.80;;;5.10;;
2872;SDS011;1444;49.166;7.312;2023-05-07T07:50:35;4.53;;;4.13;;
2872;SDS011;1444;49.166;7.312;2023-05-07T07:53:02;6.00;;;4.40;;
2872;SDS011;1444;49.166;7.312;2023-05-07T07:55:28;4.47;;;4.07;;
2872;SDS011;1444;49.166;7.312;2023-05-07T07:57:57;4.30;;;3.90;;
2872;SDS011;1444;49.166;7.312;2023-05-07T08:00:24;4.83;;;4.40;;
2872;SDS011;1444;49.166;7.312;2023-05-07T08:02:51;7.07;;;4.00;;
2872;SDS011;1444;49.166;7.312;2023-05-07T08:05:17;5.80;;;4.10;;
2872;SDS011;1444;49.166;7.312;2023-05-07T08:07:44;11.43;;;4.23;;
2872;SDS011;1444;49.166;7.312;2023-05-07T08:10:16;7.73;;;4.53;;
2872;SDS011;1444;49.166;7.312;2023-05-07T08:12:46;5.40;;;4.30;;
2872;SDS011;1444;49.166;7.312;2023-05-07T08:15:14;6.40;;;4.27;;
2872;SDS011;1444;49.166;7.312;2023-05-07T08:17:41;5.03;;;3.70;;
2872;SDS011;1444;49.166;7.312;2023-05-07T08:20:09;5.47;;;4.40;;
2872;SDS011;1444;49.166;7.312;2023-05-07T08:22:36;4.50;;;3.80;;
2872;SDS011;1444;49.166;7.312;2023-05-07T08:25:03;6.20;;;4.30;;
2872;SDS011;1444;49.166;7.312;2023-05-07T08:27:30;5.13;;;3.80;;
2872;SDS011;1444;49.166;7.312;2023-05-07T08:29:56;4.20;;;3.90;;
2872;SDS011;1444;49.166;7.312;2023-05-07T08:32:25;4.13;;;3.83;;
2872;SDS011;1444;49.166;7.312;2023-05-07T08:34:52;5.40;;;4.10;;
2872;SDS011;1444;49.166;7.312;2023-05-07T08:37:19;4.87;;;4.20;;
2872;SDS011;1444;49.166;7.312;2023-05-07T08:39:46;5.53;;;3.50;;
2872;SDS011;1444;49.166;7.312;2023-05-07T08:42:14;4.43;;;4.03;;
2872;SDS011;1444;49.166;7.312;2023-05-07T08:44:43;5.60;;;4.37;;
2872;SDS011;1444;49.166;7.312;2023-05-07T08:47:12;4.77;;;4.10;;
2872;SDS011;1444;49.166;7.312;2023-05-07T08:49:40;4.50;;;4.20;;
2872;SDS011;1444;49.166;7.312;2023-05-07T08:52:06;6.13;;;3.40;;
2872;SDS011;1444;49.166;7.312;2023-05-07T08:54:33;5.80;;;4.20;;
2872;SDS011;1444;49.166;7.312;2023-05-07T08:57:02;4.67;;;4.27;;
2872;SDS011;1444;49.166;7.312;2023-05-07T08:59:28;3.57;;;3.27;;
2872;SDS011;1444;49.166;7.312;2023-05-07T09:01:56;4.80;;;4.27;;
2872;SDS011;1444;49.166;7.312;2023-05-07T09:04:22;4.67;;;3.83;;
2872;SDS011;1444;49.166;7.312;2023-05-07T09:06:50;6.07;;;4.20;;
2872;SDS011;1444;49.166;7.312;2023-05-07T09:09:17;4.27;;;3.87;;
2872;SDS011;1444;49.166;7.312;2023-05-07T09:11:44;4.80;;;4.23;;
2872;SDS011;1444;49.166;7.312;2023-05-07T09:14:11;4.60;;;4.20;;
2872;SDS011;1444;49.166;7.312;2023-05-07T09:16:37;6.60;;;4.30;;
2872;SDS011;1444;49.166;7.312;2023-05-07T09:19:04;7.57;;;4.60;;
2872;SDS011;1444;49.166;7.312;2023-05-07T09:21:31;6.33;;;3.80;;
2872;SDS011;1444;49.166;7.312;2023-05-07T09:23:59;5.83;;;4.87;;
2872;SDS011;1444;49.166;7.312;2023-05-07T09:26:26;3.83;;;3.53;;
2872;SDS011;1444;49.166;7.312;2023-05-07T09:28:53;4.37;;;4.00;;
2872;SDS011;1444;49.166;7.312;2023-05-07T09:31:20;5.17;;;4.03;;
2872;SDS011;1444;49.166;7.312;2023-05-07T09:33:48;5.13;;;4.20;;
2872;SDS011;1444;49.166;7.312;2023-05-07T09:36:15;3.93;;;3.63;;
2872;SDS011;1444;49.166;7.312;2023-05-07T09:42:10;5.83;;;4.80;;
2872;SDS011;1444;49.166;7.312;2023-05-07T09:44:37;5.30;;;4.80;;
2872;SDS011;1444;49.166;7.312;2023-05-07T09:47:05;5.47;;;4.83;;
2872;SDS011;1444;49.166;7.312;2023-05-07T09:49:35;4.73;;;4.33;;
2872;SDS011;1444;49.166;7.312;2023-05-07T09:52:04;4.73;;;4.33;;
2872;SDS011;1444;49.166;7.312;2023-05-07T09:54:35;5.87;;;5.37;;
2872;SDS011;1444;49.166;7.312;2023-05-07T09:57:03;4.53;;;4.13;;
2872;SDS011;1444;49.166;7.312;2023-05-07T09:59:33;7.50;;;4.30;;
2872;SDS011;1444;49.166;7.312;2023-05-07T10:02:01;7.00;;;4.40;;
2872;SDS011;1444;49.166;7.312;2023-05-07T10:04:29;4.73;;;4.33;;
2872;SDS011;1444;49.166;7.312;2023-05-07T10:06:57;7.13;;;4.27;;
2872;SDS011;1444;49.166;7.312;2023-05-07T10:09:25;4.40;;;3.50;;
2872;SDS011;1444;49.166;7.312;2023-05-07T10:11:52;4.93;;;4.47;;
2872;SDS011;1444;49.166;7.312;2023-05-07T10:14:20;4.77;;;3.97;;
2872;SDS011;1444;49.166;7.312;2023-05-07T10:16:49;4.50;;;4.10;;
2872;SDS011;1444;49.166;7.312;2023-05-07T10:19:15;5.17;;;3.60;;
2872;SDS011;1444;49.166;7.312;2023-05-07T10:21:44;5.80;;;3.87;;
2872;SDS011;1444;49.166;7.312;2023-05-07T10:24:16;6.57;;;3.57;;
2872;SDS011;1444;49.166;7.312;2023-05-07T10:26:50;3.80;;;3.50;;
2872;SDS011;1444;49.166;7.312;2023-05-07T10:29:18;5.00;;;3.50;;
2872;SDS011;1444;49.166;7.312;2023-05-07T10:31:57;3.90;;;3.37;;
2872;SDS011;1444;49.166;7.312;2023-05-07T10:34:33;3.70;;;3.40;;
2872;SDS011;1444;49.166;7.312;2023-05-07T10:37:03;4.53;;;3.60;;
2872;SDS011;1444;49.166;7.312;2023-05-07T10:39:30;5.20;;;3.93;;
2872;SDS011;1444;49.166;7.312;2023-05-07T10:42:03;5.77;;;3.67;;
2872;SDS011;1444;49.166;7.312;2023-05-07T10:44:33;4.13;;;3.73;;
2872;SDS011;1444;49.166;7.312;2023-05-07T10:47:07;3.70;;;3.23;;
2872;SDS011;1444;49.166;7.312;2023-05-07T10:49:35;4.17;;;3.77;;
2872;SDS011;1444;49.166;7.312;2023-05-07T10:52:12;4.67;;;3.77;;
2872;SDS011;1444;49.166;7.312;2023-05-07T10:54:40;3.80;;;3.60;;
2872;SDS011;1444;49.166;7.312;2023-05-07T11:00:00;3.80;;;3.33;;
2872;SDS011;1444;49.166;7.312;2023-05-07T11:05:32;6.63;;;3.13;;
2872;SDS011;1444;49.166;7.312;2023-05-07T11:08:00;5.30;;;3.40;;
2872;SDS011;1444;49.166;7.312;2023-05-07T11:13:16;6.60;;;3.43;;
2872;SDS011;1444;49.166;7.312;2023-05-07T11:15:43;4.83;;;3.03;;
2872;SDS011;1444;49.166;7.312;2023-05-07T11:18:13;2.90;;;2.60;;
2872;SDS011;1444;49.166;7.312;2023-05-07T11:26:42;3.30;;;3.00;;
2872;SDS011;1444;49.166;7.312;2023-05-07T11:29:14;3.97;;;3.50;;
2872;SDS011;1444;49.166;7.312;2023-05-07T11:31:42;5.13;;;2.70;;
2872;SDS011;1444;49.166;7.312;2023-05-07T11:34:10;4.03;;;3.73;;
2872;SDS011;1444;49.166;7.312;2023-05-07T11:36:41;4.27;;;3.70;;
2872;SDS011;1444;49.166;7.312;2023-05-07T11:39:25;3.43;;;3.23;;
2872;SDS011;1444;49.166;7.312;2023-05-07T11:41:53;3.23;;;2.93;;
2872;SDS011;1444;49.166;7.312;2023-05-07T11:44:20;3.40;;;2.80;;
2872;SDS011;1444;49.166;7.312;2023-05-07T11:46:47;3.67;;;3.30;;
2872;SDS011;1444;49.166;7.312;2023-05-07T11:49:16;3.23;;;2.87;;
2872;SDS011;1444;49.166;7.312;2023-05-07T11:51:43;2.40;;;2.20;;
2872;SDS011;1444;49.166;7.312;2023-05-07T11:54:11;3.13;;;2.77;;
2872;SDS011;1444;49.166;7.312;2023-05-07T11:56:42;4.63;;;2.80;;
2872;SDS011;1444;49.166;7.312;2023-05-07T11:59:10;3.30;;;2.70;;
2872;SDS011;1444;49.166;7.312;2023-05-07T12:01:36;3.13;;;2.83;;
2872;SDS011;1444;49.166;7.312;2023-05-07T12:04:03;7.03;;;2.90;;
2872;SDS011;1444;49.166;7.312;2023-05-07T12:06:35;3.80;;;3.37;;
2872;SDS011;1444;49.166;7.312;2023-05-07T12:09:03;3.00;;;2.80;;
2872;SDS011;1444;49.166;7.312;2023-05-07T12:11:32;3.33;;;3.03;;
2872;SDS011;1444;49.166;7.312;2023-05-07T12:13:59;3.23;;;2.93;;
2872;SDS011;1444;49.166;7.312;2023-05-07T12:16:26;3.40;;;3.10;;
2872;SDS011;1444;49.166;7.312;2023-05-07T12:18:53;4.00;;;2.87;;
2872;SDS011;1444;49.166;7.312;2023-05-07T12:21:20;5.40;;;3.60;;
2872;SDS011;1444;49.166;7.312;2023-05-07T12:23:50;3.70;;;3.37;;
2872;SDS011;1444;49.166;7.312;2023-05-07T12:26:19;7.67;;;3.83;;
2872;SDS011;1444;49.166;7.312;2023-05-07T12:28:46;7.20;;;4.20;;
2872;SDS011;1444;49.166;7.312;2023-05-07T12:31:13;4.77;;;4.07;;
2872;SDS011;1444;49.166;7.312;2023-05-07T12:33:40;5.70;;;5.10;;
2872;SDS011;1444;49.166;7.312;2023-05-07T12:36:08;6.20;;;5.03;;
2872;SDS011;1444;49.166;7.312;2023-05-07T12:38:35;5.93;;;5.13;;
2872;SDS011;1444;49.166;7.312;2023-05-07T12:41:05;6.13;;;5.63;;
2872;SDS011;1444;49.166;7.312;2023-05-07T12:43:33;6.23;;;5.80;;
2872;SDS011;1444;49.166;7.312;2023-05-07T12:46:00;6.70;;;6.10;;
2872;SDS011;1444;49.166;7.312;2023-05-07T12:48:27;9.73;;;7.03;;
2872;SDS011;1444;49.166;7.312;2023-05-07T12:50:55;6.87;;;6.27;;
2872;SDS011;1444;49.166;7.312;2023-05-07T12:53:22;8.57;;;6.57;;
2872;SDS011;1444;49.166;7.312;2023-05-07T12:55:51;7.43;;;5.53;;
2872;SDS011;1444;49.166;7.312;2023-05-07T12:58:21;6.73;;;6.10;;
2872;SDS011;1444;49.166;7.312;2023-05-07T13:00:51;6.17;;;5.57;;
2872;SDS011;1444;49.166;7.312;2023-05-07T13:03:20;6.17;;;5.67;;
2872;SDS011;1444;49.166;7.312;2023-05-07T13:05:49;8.27;;;6.80;;
2872;SDS011;1444;49.166;7.312;2023-05-07T13:08:26;7.40;;;6.13;;
2872;SDS011;1444;49.166;7.312;2023-05-07T13:10:54;6.70;;;6.10;;
2872;SDS011;1444;49.166;7.312;2023-05-07T13:13:22;6.47;;;5.83;;
2872;SDS011;1444;49.166;7.312;2023-05-07T13:15:50;6.53;;;6.00;;
2872;SDS011;1444;49.166;7.312;2023-05-07T13:18:16;8.03;;;7.20;;
2872;SDS011;1444;49.166;7.312;2023-05-07T13:20:43;9.40;;;6.30;;
2872;SDS011;1444;49.166;7.312;2023-05-07T13:23:10;10.37;;;7.80;;
2872;SDS011;1444;49.166;7.312;2023-05-07T13:25:37;6.80;;;6.23;;
2872;SDS011;1444;49.166;7.312;2023-05-07T13:28:03;8.00;;;6.20;;
2872;SDS011;1444;49.166;7.312;2023-05-07T13:30:31;10.30;;;7.57;;
2872;SDS011;1444;49.166;7.312;2023-05-07T13:32:58;7.83;;;7.23;;
2872;SDS011;1444;49.166;7.312;2023-05-07T13:35:25;8.10;;;7.33;;
2872;SDS011;1444;49.166;7.312;2023-05-07T13:37:52;7.80;;;7.10;;
2872;SDS011;1444;49.166;7.312;2023-05-07T13:40:19;8.43;;;7.30;;
2872;SDS011;1444;49.166;7.312;2023-05-07T13:42:47;7.67;;;6.90;;
2872;SDS011;1444;49.166;7.312;2023-05-07T13:45:13;7.83;;;6.10;;
2872;SDS011;1444;49.166;7.312;2023-05-07T13:47:41;10.23;;;7.03;;
2872;SDS011;1444;49.166;7.312;2023-05-07T13:50:09;8.67;;;7.53;;
2872;SDS011;1444;49.166;7.312;2023-05-07T13:52:38;8.80;;;7.90;;
2872;SDS011;1444;49.166;7.312;2023-05-07T13:55:06;10.33;;;8.20;;
2872;SDS011;1444;49.166;7.312;2023-05-07T13:57:33;8.07;;;7.27;;
2872;SDS011;1444;49.166;7.312;2023-05-07T14:00:00;9.20;;;8.40;;
2872;SDS011;1444;49.166;7.312;2023-05-07T14:02:26;9.27;;;8.37;;
2872;SDS011;1444;49.166;7.312;2023-05-07T14:04:54;9.33;;;7.93;;
2872;SDS011;1444;49.166;7.312;2023-05-07T14:07:21;9.27;;;8.37;;
2872;SDS011;1444;49.166;7.312;2023-05-07T14:09:48;10.00;;;7.67;;
2872;SDS011;1444;49.166;7.312;2023-05-07T14:12:14;8.70;;;7.90;;
2872;SDS011;1444;49.166;7.312;2023-05-07T14:14:41;8.23;;;7.57;;
2872;SDS011;1444;49.166;7.312;2023-05-07T14:17:08;8.50;;;7.80;;
2872;SDS011;1444;49.166;7.312;2023-05-07T14:19:34;11.10;;;7.80;;
2872;SDS011;1444;49.166;7.312;2023-05-07T14:22:02;9.57;;;7.80;;
2872;SDS011;1444;49.166;7.312;2023-05-07T14:24:29;9.13;;;8.23;;
2872;SDS011;1444;49.166;7.312;2023-05-07T14:26:56;9.67;;;7.87;;
2872;SDS011;1444;49.166;7.312;2023-05-07T14:29:22;8.97;;;7.77;;
2872;SDS011;1444;49.166;7.312;2023-05-07T14:31:49;7.90;;;7.20;;
2872;SDS011;1444;49.166;7.312;2023-05-07T14:34:16;8.53;;;7.60;;
2872;SDS011;1444;49.166;7.312;2023-05-07T14:36:42;8.97;;;8.10;;
2872;SDS011;1444;49.166;7.312;2023-05-07T14:39:10;9.10;;;7.83;;
2872;SDS011;1444;49.166;7.312;2023-05-07T14:41:37;10.93;;;9.30;;
2872;SDS011;1444;49.166;7.312;2023-05-07T14:44:04;11.30;;;8.70;;
2872;SDS011;1444;49.166;7.312;2023-05-07T14:46:30;11.17;;;8.50;;
2872;SDS011;1444;49.166;7.312;2023-05-07T14:48:57;13.60;;;6.70;;
2872;SDS011;1444;49.166;7.312;2023-05-07T14:51:24;7.70;;;6.97;;
2872;SDS011;1444;49.166;7.312;2023-05-07T14:53:53;8.47;;;7.67;;
2872;SDS011;1444;49.166;7.312;2023-05-07T14:56:21;8.27;;;6.70;;
2872;SDS011;1444;49.166;7.312;2023-05-07T14:58:47;8.93;;;7.60;;
2872;SDS011;1444;49.166;7.312;2023-05-07T15:01:14;9.97;;;7.30;;
2872;SDS011;1444;49.166;7.312;2023-05-07T15:03:41;7.80;;;7.00;;
2872;SDS011;1444;49.166;7.312;2023-05-07T15:06:08;8.33;;;7.53;;
2872;SDS011;1444;49.166;7.312;2023-05-07T15:08:35;7.60;;;7.00;;
2872;SDS011;1444;49.166;7.312;2023-05-07T15:11:02;8.17;;;6.80;;
2872;SDS011;1444;49.166;7.312;2023-05-07T15:13:30;7.70;;;7.00;;
2872;SDS011;1444;49.166;7.312;2023-05-07T15:15:56;8.43;;;6.30;;
2872;SDS011;1444;49.166;7.312;2023-05-07T15:18:23;7.90;;;7.00;;
2872;SDS011;1444;49.166;7.312;2023-05-07T15:20:50;7.13;;;6.53;;
2872;SDS011;1444;49.166;7.312;2023-05-07T15:23:17;6.70;;;6.10;;
2872;SDS011;1444;49.166;7.312;2023-05-07T15:25:43;6.60;;;6.10;;
2872;SDS011;1444;49.166;7.312;2023-05-07T15:28:10;7.03;;;6.33;;
2872;SDS011;1444;49.166;7.312;2023-05-07T15:30:38;7.20;;;6.50;;
2872;SDS011;1444;49.166;7.312;2023-05-07T15:33:05;7.60;;;6.23;;
2872;SDS011;1444;49.166;7.312;2023-05-07T15:35:31;10.57;;;6.27;;